Jesse Viertel Memorial Airport


Codes: KVER/
Name: Jesse Viertel Memorial Airport
City: Boonville
Country: United States
Elevation: 715 ft.

Photos at Jesse Viertel Memorial Airport


   Photos courtesy of SpottingLog. You can add your own sightings and photos by signing up for a free trial today.



No photos found.

Weather at Jesse Viertel Memorial Airport


Time (UTC)DescriptionTempratureWindCloud coverageVisibilityPressureHumidity
15-Apr-2024 18:00Clear Sky25°C9 mph, SE7%10000m1013hPa50%
15-Apr-2024 21:00Broken Clouds27°C11 mph, SE67%10000m1011hPa51%
16-Apr-2024 00:00Overcast Clouds24°C9 mph, SE100%10000m1008hPa72%
16-Apr-2024 03:00Light Rain20°C11 mph, SE80%9010m1009hPa90%
16-Apr-2024 06:00Light Rain19°C11 mph, SE79%10000m1007hPa90%
16-Apr-2024 09:00Broken Clouds19°C9 mph, SE72%10000m1006hPa87%
16-Apr-2024 12:00Broken Clouds18°C13 mph, SE74%10000m1005hPa89%
16-Apr-2024 15:00Light Rain23°C20 mph, S84%10000m1002hPa74%
16-Apr-2024 18:00Light Rain20°C22 mph, S90%10000m1002hPa82%
16-Apr-2024 21:00Light Rain24°C25 mph, S44%10000m1000hPa63%
17-Apr-2024 00:00Light Rain21°C20 mph, SW22%10000m1000hPa43%
17-Apr-2024 03:00Clear Sky21°C20 mph, S3%10000m1000hPa41%
17-Apr-2024 06:00Scattered Clouds20°C20 mph, SW29%10000m1000hPa40%
17-Apr-2024 09:00Scattered Clouds16°C18 mph, W35%10000m1002hPa66%
17-Apr-2024 12:00Broken Clouds14°C13 mph, W61%10000m1005hPa76%
17-Apr-2024 15:00Scattered Clouds16°C18 mph, W39%10000m1007hPa65%
17-Apr-2024 18:00Broken Clouds17°C20 mph, NW69%10000m1010hPa57%
17-Apr-2024 21:00Broken Clouds19°C18 mph, NW52%10000m1011hPa51%
18-Apr-2024 00:00Scattered Clouds17°C9 mph, NW28%10000m1013hPa63%
18-Apr-2024 03:00Clear Sky12°C7 mph, N3%10000m1016hPa77%
18-Apr-2024 06:00Few Clouds10°C4 mph, NE17%10000m1017hPa81%
18-Apr-2024 09:00Few Clouds9°C7 mph, NE16%10000m1016hPa82%
18-Apr-2024 12:00Scattered Clouds8°C7 mph, NE32%10000m1018hPa84%
18-Apr-2024 15:00Scattered Clouds14°C11 mph, E34%10000m1018hPa57%
18-Apr-2024 18:00Broken Clouds15°C11 mph, E66%10000m1017hPa56%
18-Apr-2024 21:00Light Rain14°C11 mph, NE100%10000m1016hPa67%
19-Apr-2024 00:00Light Rain11°C16 mph, NE100%7903m1017hPa89%
19-Apr-2024 03:00Light Rain8°C11 mph, NE100%10000m1020hPa90%
19-Apr-2024 06:00Overcast Clouds8°C7 mph, N100%10000m1021hPa89%
19-Apr-2024 09:00Overcast Clouds8°C9 mph, N99%10000m1021hPa87%
19-Apr-2024 12:00Overcast Clouds6°C9 mph, N96%10000m1022hPa86%
19-Apr-2024 15:00Overcast Clouds11°C11 mph, N97%10000m1024hPa48%
19-Apr-2024 18:00Overcast Clouds14°C11 mph, N98%10000m1024hPa37%
19-Apr-2024 21:00Overcast Clouds15°C9 mph, N100%10000m1022hPa38%
20-Apr-2024 00:00Overcast Clouds12°C7 mph, N100%10000m1023hPa54%
20-Apr-2024 03:00Overcast Clouds7°C7 mph, N88%10000m1025hPa62%
20-Apr-2024 06:00Broken Clouds6°C7 mph, N56%10000m1026hPa66%
20-Apr-2024 09:00Scattered Clouds5°C7 mph, N28%10000m1026hPa66%
20-Apr-2024 12:00Broken Clouds5°C4 mph, N51%10000m1028hPa55%
20-Apr-2024 15:00Broken Clouds9°C9 mph, N55%10000m1027hPa45%